createdAt,value
2019-05-18T00:01:05.759Z,99.90
2019-05-18T00:04:06.418Z,99.90
2019-05-18T00:07:14.390Z,99.90
2019-05-18T00:10:22.405Z,99.90
2019-05-18T00:13:11.209Z,99.90
2019-05-18T00:16:19.241Z,99.90
2019-05-18T00:19:27.257Z,99.90
2019-05-18T00:22:35.390Z,99.90
2019-05-18T00:25:43.404Z,99.90
2019-05-18T00:28:51.438Z,99.90
2019-05-18T00:31:40.233Z,99.90
2019-05-18T00:34:48.241Z,99.90
2019-05-18T00:37:56.273Z,99.90
2019-05-18T00:41:04.291Z,99.90
2019-05-18T00:44:05.137Z,99.90
2019-05-18T00:47:06.147Z,99.90
2019-05-18T00:50:07.097Z,99.90
2019-05-18T00:53:07.689Z,99.90
2019-05-18T00:56:08.497Z,99.90
2019-05-18T00:59:09.313Z,99.90
2019-05-18T01:02:10.049Z,99.90
2019-05-18T01:05:10.722Z,99.90
2019-05-18T01:08:11.564Z,99.90
2019-05-18T01:11:12.715Z,99.90
2019-05-18T01:14:13.426Z,99.90
2019-05-18T01:17:14.310Z,99.90
2019-05-18T01:20:14.983Z,99.90
2019-05-18T01:23:15.713Z,99.90
2019-05-18T01:26:16.261Z,99.90
2019-05-18T01:29:16.903Z,99.90
2019-05-18T01:32:17.906Z,99.90
2019-05-18T01:35:18.537Z,99.90
2019-05-18T01:38:19.017Z,99.90
2019-05-18T01:41:19.561Z,99.90
2019-05-18T01:44:20.240Z,99.90
2019-05-18T01:47:20.830Z,99.90
2019-05-18T01:50:21.554Z,99.90
2019-05-18T01:53:22.145Z,99.90
2019-05-18T01:56:22.904Z,99.90
2019-05-18T01:59:23.550Z,99.90
2019-05-18T02:02:24.225Z,99.90
2019-05-18T02:05:25.178Z,99.90
2019-05-18T02:08:25.939Z,99.90
2019-05-18T02:11:27.071Z,99.90
2019-05-18T02:14:28.082Z,99.90
2019-05-18T02:17:28.809Z,99.90
2019-05-18T02:20:29.547Z,99.90
2019-05-18T02:23:29.920Z,99.90
2019-05-18T02:26:30.755Z,99.90
2019-05-18T02:29:31.494Z,99.90
2019-05-18T02:32:32.223Z,99.90
2019-05-18T02:35:33.323Z,99.90
2019-05-18T02:38:34.199Z,99.90
2019-05-18T02:41:34.760Z,99.90
2019-05-18T02:44:35.395Z,99.90
2019-05-18T02:47:36.236Z,99.90
2019-05-18T02:50:37.186Z,99.90
2019-05-18T02:53:37.841Z,99.90
2019-05-18T02:56:38.742Z,99.90
2019-05-18T02:59:39.529Z,99.90
2019-05-18T03:02:40.157Z,99.90
2019-05-18T03:05:40.955Z,99.90
2019-05-18T03:08:41.901Z,99.90
2019-05-18T03:11:42.628Z,99.90
2019-05-18T03:14:43.515Z,99.90
2019-05-18T03:17:44.339Z,99.90
2019-05-18T03:20:45.158Z,99.90
2019-05-18T03:23:46.147Z,99.90
2019-05-18T03:26:46.902Z,99.90
2019-05-18T03:29:47.557Z,99.90
2019-05-18T03:32:48.327Z,99.90
2019-05-18T03:35:49.518Z,99.90
2019-05-18T03:38:50.254Z,99.90
2019-05-18T03:41:50.821Z,99.90
2019-05-18T03:44:51.762Z,99.90
2019-05-18T03:47:52.746Z,99.90
2019-05-18T03:50:53.547Z,99.90
2019-05-18T03:53:54.203Z,99.90
2019-05-18T03:56:54.932Z,99.90
2019-05-18T03:59:55.885Z,99.90
2019-05-18T04:02:56.700Z,99.90
2019-05-18T04:05:57.521Z,99.90
2019-05-18T04:08:58.358Z,99.90
2019-05-18T04:11:59.041Z,99.90
2019-05-18T04:14:59.509Z,99.90
2019-05-18T04:18:00.036Z,99.90
2019-05-18T04:21:00.794Z,99.90
2019-05-18T04:24:01.580Z,99.90
2019-05-18T04:27:02.365Z,99.90
2019-05-18T04:30:03.188Z,99.90
2019-05-18T04:33:03.802Z,99.90
2019-05-18T04:36:04.579Z,99.90
2019-05-18T04:39:05.443Z,99.90
2019-05-18T04:42:05.881Z,99.90
2019-05-18T04:45:06.442Z,99.90
2019-05-18T04:48:07.266Z,99.90
2019-05-18T04:51:08.190Z,99.90
2019-05-18T04:54:09.000Z,99.90
2019-05-18T04:57:09.841Z,99.90
2019-05-18T05:00:10.642Z,99.90
2019-05-18T05:03:11.238Z,99.90
2019-05-18T05:06:11.932Z,99.90
2019-05-18T05:09:12.653Z,99.90
2019-05-18T05:12:13.430Z,99.90
2019-05-18T05:15:14.221Z,99.90
2019-05-18T05:18:15.349Z,99.90
2019-05-18T05:21:16.037Z,99.90
2019-05-18T05:24:16.716Z,99.90
2019-05-18T05:27:17.175Z,99.90
2019-05-18T05:30:17.754Z,99.90
2019-05-18T05:33:18.557Z,99.90
2019-05-18T05:36:19.481Z,99.90
2019-05-18T05:39:20.409Z,99.90
2019-05-18T05:42:21.204Z,99.90
2019-05-18T05:45:22.118Z,99.90
2019-05-18T05:48:23.055Z,99.90
2019-05-18T05:51:23.629Z,99.90
2019-05-18T05:54:24.177Z,99.90
2019-05-18T05:57:25.110Z,99.90
2019-05-18T06:00:25.862Z,99.90
2019-05-18T06:03:26.593Z,99.90
2019-05-18T06:06:27.614Z,99.90
2019-05-18T06:09:28.545Z,99.90
2019-05-18T06:12:29.497Z,99.90
2019-05-18T06:15:30.486Z,99.90
2019-05-18T06:18:31.330Z,99.90
2019-05-18T06:21:31.969Z,99.90
2019-05-18T06:24:32.747Z,99.90
2019-05-18T06:27:33.474Z,99.90
2019-05-18T06:30:34.225Z,99.90
2019-05-18T06:33:35.011Z,99.90
2019-05-18T06:36:35.735Z,99.90
2019-05-18T06:39:36.593Z,99.90
2019-05-18T06:42:37.409Z,99.90
2019-05-18T06:45:37.929Z,99.90
2019-05-18T06:48:38.593Z,99.90
2019-05-18T06:51:39.525Z,99.90
2019-05-18T06:54:40.207Z,99.90
2019-05-18T06:57:41.017Z,99.90
2019-05-18T07:00:42.000Z,99.90
2019-05-18T07:03:45.067Z,99.90
2019-05-18T07:06:45.481Z,99.90
2019-05-18T07:09:46.114Z,99.90
2019-05-18T07:12:47.161Z,99.90
2019-05-18T07:15:48.033Z,99.90
2019-05-18T07:18:48.619Z,99.90
2019-05-18T07:21:49.617Z,99.90
2019-05-18T07:24:50.317Z,99.90
2019-05-18T07:27:51.253Z,99.90
2019-05-18T07:30:51.805Z,99.90
2019-05-18T07:33:52.963Z,99.90
2019-05-18T07:36:53.962Z,99.90
2019-05-18T07:39:54.698Z,99.90
2019-05-18T07:42:55.525Z,99.90
2019-05-18T07:45:56.441Z,99.90
2019-05-18T07:48:57.006Z,99.90
2019-05-18T07:51:57.688Z,99.90
2019-05-18T07:54:58.433Z,99.90
2019-05-18T07:57:59.065Z,99.90
2019-05-18T08:00:59.793Z,99.90
2019-05-18T08:04:00.390Z,99.90
2019-05-18T08:07:01.225Z,99.90
2019-05-18T08:10:01.873Z,99.90
2019-05-18T08:13:02.249Z,99.90
2019-05-18T08:16:02.923Z,99.90
2019-05-18T08:19:03.597Z,99.90
2019-05-18T08:22:04.258Z,99.90
2019-05-18T08:25:04.878Z,99.90
2019-05-18T08:28:05.610Z,99.90
2019-05-18T08:31:06.049Z,99.90
2019-05-18T08:34:06.902Z,99.90
2019-05-18T08:37:07.737Z,99.90
2019-05-18T08:40:08.946Z,99.90
2019-05-18T08:43:09.630Z,99.90
2019-05-18T08:46:10.393Z,99.90
2019-05-18T08:49:11.001Z,99.90
2019-05-18T08:52:11.437Z,99.90
2019-05-18T08:55:11.946Z,99.90
2019-05-18T08:58:12.793Z,99.90
2019-05-18T09:01:13.596Z,99.90
2019-05-18T09:04:14.366Z,99.90
2019-05-18T09:07:15.285Z,99.90
2019-05-18T09:10:16.010Z,99.90
2019-05-18T09:13:16.781Z,99.90
2019-05-18T09:16:17.418Z,99.90
2019-05-18T09:19:18.210Z,99.90
2019-05-18T09:22:23.103Z,99.90
2019-05-18T09:25:21.370Z,99.90
2019-05-18T09:28:22.118Z,99.90
2019-05-18T09:31:22.641Z,99.90
2019-05-18T09:34:23.376Z,99.90
2019-05-18T09:37:24.121Z,99.90
2019-05-18T09:40:24.857Z,99.90
2019-05-18T09:43:25.746Z,99.90
2019-05-18T09:46:26.525Z,99.90
2019-05-18T09:49:27.804Z,99.90
2019-05-18T09:52:44.274Z,99.90
2019-05-18T09:55:31.325Z,99.90
2019-05-18T09:58:32.177Z,99.90
2019-05-18T10:01:32.790Z,99.90
2019-05-18T10:04:33.409Z,99.90
2019-05-18T10:07:34.320Z,99.90
2019-05-18T10:10:35.122Z,99.90
2019-05-18T10:13:35.832Z,99.90
2019-05-18T10:16:36.721Z,99.90
2019-05-18T10:19:37.629Z,99.90
2019-05-18T10:22:51.169Z,99.90
2019-05-18T10:25:41.041Z,99.90
2019-05-18T10:28:42.101Z,99.90
2019-05-18T10:31:42.777Z,99.90
2019-05-18T10:34:43.302Z,99.90
2019-05-18T10:37:44.094Z,99.90
2019-05-18T10:40:44.593Z,99.90
2019-05-18T10:43:46.890Z,99.90
2019-05-18T10:46:48.073Z,99.90
2019-05-18T10:49:48.922Z,99.90
2019-05-18T10:52:49.704Z,99.90
2019-05-18T10:55:50.550Z,99.90
2019-05-18T10:58:51.173Z,99.90
2019-05-18T11:01:51.934Z,99.90
2019-05-18T11:04:52.678Z,99.90
2019-05-18T11:07:53.485Z,99.90
2019-05-18T11:10:54.274Z,99.90
2019-05-18T11:13:54.997Z,99.90
2019-05-18T11:16:55.791Z,99.90
2019-05-18T11:19:56.449Z,99.90
2019-05-18T11:22:57.278Z,99.90
2019-05-18T11:25:58.050Z,99.90
2019-05-18T11:28:58.835Z,99.90
2019-05-18T11:31:59.745Z,99.90
2019-05-18T11:35:00.429Z,99.90
2019-05-18T11:38:01.205Z,99.90
2019-05-18T11:41:02.043Z,99.90
2019-05-18T11:44:02.829Z,99.90
2019-05-18T11:47:03.852Z,99.90
2019-05-18T11:50:04.607Z,99.90
2019-05-18T11:53:05.311Z,99.90
2019-05-18T11:56:05.890Z,99.90
2019-05-18T11:59:06.444Z,99.10
2019-05-18T12:02:07.158Z,98.70
2019-05-18T12:05:08.003Z,98.80
2019-05-18T12:08:08.778Z,95.50
2019-05-18T12:11:09.496Z,95.80
2019-05-18T12:14:10.021Z,96.70
2019-05-18T12:17:10.817Z,94.80
2019-05-18T12:20:11.682Z,95.40
2019-05-18T12:23:12.530Z,94.10
2019-05-18T12:26:13.182Z,93.30
2019-05-18T12:29:14.010Z,90.70
2019-05-18T12:32:14.677Z,92.20
2019-05-18T12:35:15.493Z,92.30
2019-05-18T12:38:16.132Z,91.10
2019-05-18T12:41:20.129Z,90.70
2019-05-18T12:44:20.782Z,89.20
2019-05-18T12:47:22.073Z,90.90
2019-05-18T12:50:22.985Z,91.30
2019-05-18T12:53:23.836Z,87.60
2019-05-18T12:56:24.638Z,86.50
2019-05-18T12:59:25.057Z,85.10
2019-05-18T13:02:26.162Z,88.70
2019-05-18T13:05:26.994Z,87.60
2019-05-18T13:08:27.741Z,90.00
2019-05-18T13:11:28.196Z,90.30
2019-05-18T13:14:29.179Z,85.40
2019-05-18T13:17:29.634Z,85.00
2019-05-18T13:20:30.025Z,89.30
2019-05-18T13:23:30.922Z,84.20
2019-05-18T13:26:31.761Z,85.50
2019-05-18T13:29:32.612Z,86.50
2019-05-18T13:32:33.262Z,85.80
2019-05-18T13:35:33.804Z,83.50
2019-05-18T13:38:34.725Z,83.60
2019-05-18T13:41:35.390Z,83.90
2019-05-18T13:44:38.119Z,81.40
2019-05-18T13:47:38.773Z,81.10
2019-05-18T13:50:39.644Z,81.40
2019-05-18T13:53:40.422Z,79.30
2019-05-18T13:56:40.981Z,80.70
2019-05-18T13:59:41.756Z,76.40
2019-05-18T14:02:42.685Z,76.50
2019-05-18T14:05:43.533Z,79.60
2019-05-18T14:08:44.229Z,79.00
2019-05-18T14:11:44.941Z,79.00
2019-05-18T14:14:45.757Z,79.10
2019-05-18T14:17:46.425Z,77.40
2019-05-18T14:20:47.176Z,72.80
2019-05-18T14:23:48.014Z,74.80
2019-05-18T14:26:48.786Z,75.90
2019-05-18T14:29:50.658Z,74.20
2019-05-18T14:32:51.097Z,76.20
2019-05-18T14:35:51.718Z,75.40
2019-05-18T14:38:56.798Z,70.10
2019-05-18T14:41:44.657Z,72.10
2019-05-18T14:44:45.241Z,73.40
2019-05-18T14:47:45.842Z,74.90
2019-05-18T14:50:46.732Z,71.00
2019-05-18T14:53:47.546Z,73.70
2019-05-18T14:56:48.131Z,71.20
2019-05-18T14:59:48.794Z,69.00
2019-05-18T15:02:49.565Z,69.80
2019-05-18T15:05:50.277Z,67.60
2019-05-18T15:08:50.803Z,67.90
2019-05-18T15:11:51.437Z,67.30
2019-05-18T15:14:51.976Z,68.20
2019-05-18T15:17:52.608Z,66.40
2019-05-18T15:20:53.793Z,66.00
2019-05-18T15:23:54.469Z,64.40
2019-05-18T15:26:55.245Z,64.20
2019-05-18T15:29:55.818Z,64.60
2019-05-18T15:32:56.297Z,62.00
2019-05-18T15:35:57.018Z,62.40
2019-05-18T15:38:57.524Z,62.00
2019-05-18T15:41:58.246Z,61.70
2019-05-18T15:44:58.716Z,59.80
2019-05-18T15:47:59.248Z,59.30
2019-05-18T15:50:59.985Z,58.30
2019-05-18T15:54:00.702Z,56.80
2019-05-18T15:57:01.161Z,57.10
2019-05-18T16:00:06.197Z,57.60
2019-05-18T16:03:04.277Z,58.30
2019-05-18T16:06:04.938Z,58.40
2019-05-18T16:09:05.447Z,58.40
2019-05-18T16:12:05.945Z,58.90
2019-05-18T16:15:06.332Z,59.20
2019-05-18T16:18:07.033Z,59.30
2019-05-18T16:21:07.850Z,59.50
2019-05-18T16:24:08.398Z,61.20
2019-05-18T16:27:09.413Z,60.80
2019-05-18T16:30:10.086Z,60.00
2019-05-18T16:33:10.934Z,60.50
2019-05-18T16:36:11.666Z,61.10
2019-05-18T16:39:12.546Z,61.40
2019-05-18T16:42:13.471Z,60.90
2019-05-18T16:45:14.403Z,62.10
2019-05-18T16:48:15.190Z,61.80
2019-05-18T16:51:15.746Z,61.20
2019-05-18T16:54:16.628Z,63.50
2019-05-18T16:57:17.345Z,64.00
2019-05-18T17:00:18.100Z,64.10
2019-05-18T17:03:18.825Z,64.90
2019-05-18T17:06:19.710Z,66.40
2019-05-18T17:09:20.541Z,67.10
2019-05-18T17:12:21.257Z,66.30
2019-05-18T17:15:22.109Z,67.50
2019-05-18T17:18:23.281Z,67.20
2019-05-18T17:21:24.093Z,68.70
2019-05-18T17:24:25.029Z,69.80
2019-05-18T17:27:25.812Z,69.20
2019-05-18T17:30:26.505Z,69.80
2019-05-18T17:33:27.381Z,71.00
2019-05-18T17:36:28.154Z,70.50
2019-05-18T17:39:29.055Z,71.30
2019-05-18T17:42:29.645Z,70.60
2019-05-18T17:45:30.664Z,70.70
2019-05-18T17:48:31.515Z,72.00
2019-05-18T17:51:32.270Z,72.80
2019-05-18T17:54:32.923Z,71.80
2019-05-18T17:57:33.886Z,72.30
2019-05-18T18:00:34.707Z,72.80
2019-05-18T18:03:35.426Z,71.90
2019-05-18T18:06:37.271Z,72.70
2019-05-18T18:09:37.901Z,73.30
2019-05-18T18:12:38.855Z,73.70
2019-05-18T18:15:39.519Z,73.10
2019-05-18T18:18:40.104Z,74.90
2019-05-18T18:21:40.898Z,74.60
2019-05-18T18:24:41.473Z,75.50
2019-05-18T18:27:42.485Z,76.50
2019-05-18T18:30:43.306Z,76.40
2019-05-18T18:33:43.989Z,77.60
2019-05-18T18:36:44.733Z,77.90
2019-05-18T18:39:45.447Z,80.90
2019-05-18T18:42:46.245Z,80.20
2019-05-18T18:45:46.857Z,80.10
2019-05-18T18:48:47.529Z,82.40
2019-05-18T18:51:48.321Z,84.00
2019-05-18T18:54:49.185Z,86.30
2019-05-18T18:57:49.932Z,87.00
2019-05-18T19:00:50.497Z,87.80
2019-05-18T19:03:51.452Z,89.90
2019-05-18T19:06:52.266Z,90.10
2019-05-18T19:09:53.066Z,90.80
2019-05-18T19:12:54.419Z,91.30
2019-05-18T19:15:55.100Z,91.70
2019-05-18T19:18:55.930Z,92.60
2019-05-18T19:21:56.618Z,93.50
2019-05-18T19:24:57.406Z,93.90
2019-05-18T19:27:58.073Z,94.70
2019-05-18T19:30:59.261Z,95.20
2019-05-18T19:33:59.929Z,96.40
2019-05-18T19:37:00.951Z,97.70
2019-05-18T19:40:01.600Z,98.20
2019-05-18T19:43:02.261Z,99.40
2019-05-18T19:46:03.118Z,99.90
2019-05-18T19:49:03.889Z,99.90
2019-05-18T19:52:04.534Z,99.90
2019-05-18T19:55:05.321Z,99.90
2019-05-18T19:58:08.879Z,99.90
2019-05-18T20:01:08.689Z,99.90
2019-05-18T20:04:09.149Z,99.90
2019-05-18T20:07:09.953Z,99.90
2019-05-18T20:10:11.001Z,99.90
2019-05-18T20:13:11.722Z,99.90
2019-05-18T20:16:12.342Z,99.90
2019-05-18T20:19:13.029Z,99.90
2019-05-18T20:22:13.757Z,99.90
2019-05-18T20:25:14.300Z,99.90
2019-05-18T20:28:23.254Z,99.90
2019-05-18T20:31:17.210Z,99.90
2019-05-18T20:34:18.112Z,99.90
2019-05-18T20:37:19.026Z,99.90
2019-05-18T20:40:19.674Z,99.90
2019-05-18T20:43:20.213Z,99.90
2019-05-18T20:46:20.942Z,99.90
2019-05-18T20:49:22.032Z,99.90
2019-05-18T20:52:22.518Z,99.90
2019-05-18T20:55:23.282Z,99.90
2019-05-18T20:58:38.308Z,99.90
2019-05-18T21:01:26.558Z,99.90
2019-05-18T21:04:27.193Z,99.90
2019-05-18T21:07:28.405Z,99.90
2019-05-18T21:10:29.122Z,99.90
2019-05-18T21:13:30.145Z,99.90
2019-05-18T21:16:30.605Z,99.90
2019-05-18T21:19:31.321Z,99.90
2019-05-18T21:22:32.182Z,99.90
2019-05-18T21:25:33.064Z,99.90
2019-05-18T21:28:33.903Z,99.90
2019-05-18T21:31:34.410Z,99.90
2019-05-18T21:34:35.264Z,99.90
2019-05-18T21:37:35.846Z,99.90
2019-05-18T21:40:36.482Z,99.90
2019-05-18T21:43:37.171Z,99.90
2019-05-18T21:46:39.160Z,99.90
2019-05-18T21:49:39.973Z,99.90
2019-05-18T21:52:42.098Z,99.90
2019-05-18T21:55:42.689Z,99.90
2019-05-18T21:58:43.484Z,99.90
2019-05-18T22:01:44.218Z,99.90
2019-05-18T22:04:44.953Z,99.90
2019-05-18T22:07:45.793Z,99.90
2019-05-18T22:10:46.654Z,99.90
2019-05-18T22:13:47.461Z,99.90
2019-05-18T22:16:48.457Z,99.90
2019-05-18T22:19:49.234Z,99.90
2019-05-18T22:22:53.460Z,99.90
2019-05-18T22:25:56.849Z,99.90
2019-05-18T22:28:56.942Z,99.90
2019-05-18T22:31:57.547Z,99.90
2019-05-18T22:34:58.300Z,99.90
2019-05-18T22:37:59.202Z,99.90
2019-05-18T22:41:00.162Z,99.90
2019-05-18T22:44:01.105Z,99.90
2019-05-18T22:47:01.922Z,99.90
2019-05-18T22:50:02.710Z,99.90
2019-05-18T22:53:03.649Z,99.90
2019-05-18T22:56:04.620Z,99.90
2019-05-18T22:59:05.295Z,99.90
2019-05-18T23:02:06.149Z,99.90
2019-05-18T23:05:07.050Z,99.90
2019-05-18T23:08:07.959Z,99.90
2019-05-18T23:11:08.816Z,99.90
2019-05-18T23:14:09.794Z,99.90
2019-05-18T23:17:10.680Z,99.90
2019-05-18T23:20:11.682Z,99.90
2019-05-18T23:23:12.342Z,99.90
2019-05-18T23:26:13.414Z,99.90
2019-05-18T23:29:14.296Z,99.90
2019-05-18T23:32:15.062Z,99.90
2019-05-18T23:35:16.362Z,99.90
2019-05-18T23:38:17.017Z,99.90
2019-05-18T23:41:17.689Z,99.90
2019-05-18T23:44:18.590Z,99.90
2019-05-18T23:47:19.378Z,99.90
2019-05-18T23:50:20.061Z,99.90
2019-05-18T23:53:20.829Z,99.90
2019-05-18T23:56:21.754Z,99.90
2019-05-18T23:59:22.414Z,99.90
